KAIT

Aitkin Municipal-Steve Kurtz Field Airport

Aitkin, Minnesota, USA
METAR KAIT 140435Z AUTO 00000KT 10SM OVC070 M08/M12 A3035 RMK AO2
Observed Flight Rules
Nov-14 @ 04:35 UTC (13 minutes ago) Visual Flight Rules
Visibility Clouds
10 miles
  • Overcast at 7,000' AGL
Temperatures Readings
Current -8°C / 18°F
Dewpoint -12°C / 10°F
Humidity 73%
Altimeter 30.35" Hg
Pressure 1028 hPa
Elevation 367
METAR KAIT 140435Z AUTO 00000KT 10SM OVC070 M08/M12 A3035 RMK AO2
Observed Flight Rules
Nov-14 @ 04:35 UTC
(13 minutes ago)
VFR
Clouds
  • Overcast at 7,000' AGL
Temperature Dewpoint
-8°C / 18°F -12°C / 10°F
Humidity Altimeter Pressure
73% 30.35" Hg 1028 hPa